createdAt,value
2019-05-10T00:00:28.735Z,99589
2019-05-10T00:03:03.010Z,99597
2019-05-10T00:05:37.424Z,99598
2019-05-10T00:08:12.581Z,99601
2019-05-10T00:10:41.415Z,99611
2019-05-10T00:13:11.007Z,99606
2019-05-10T00:15:39.857Z,99606
2019-05-10T00:18:08.706Z,99608
2019-05-10T00:20:38.274Z,99613
2019-05-10T00:23:07.099Z,99609
2019-05-10T00:25:35.933Z,99615
2019-05-10T00:28:04.765Z,99606
2019-05-10T00:30:33.597Z,99604
2019-05-10T00:33:02.435Z,99603
2019-05-10T00:35:31.282Z,99614
2019-05-10T00:38:00.135Z,99617
2019-05-10T00:40:28.991Z,99623
2019-05-10T00:42:57.839Z,99615
2019-05-10T00:45:26.721Z,99622
2019-05-10T00:47:56.131Z,99619
2019-05-10T00:50:24.958Z,99628
2019-05-10T00:52:54.535Z,99612
2019-05-10T00:55:23.383Z,99626
2019-05-10T00:57:52.239Z,99622
2019-05-10T01:00:21.087Z,99624
2019-05-10T01:02:49.927Z,99650
2019-05-10T01:05:18.755Z,99644
2019-05-10T01:07:48.345Z,99636
2019-05-10T01:10:17.189Z,99643
2019-05-10T01:12:46.047Z,99635
2019-05-10T01:15:15.637Z,99642
2019-05-10T01:17:45.225Z,99642
2019-05-10T01:20:14.057Z,99634
2019-05-10T01:22:42.903Z,99635
2019-05-10T01:25:11.738Z,99639
2019-05-10T01:27:40.621Z,99636
2019-05-10T01:30:09.444Z,99636
2019-05-10T01:32:38.278Z,99645
2019-05-10T01:35:07.849Z,99647
2019-05-10T01:37:36.680Z,99645
2019-05-10T01:40:06.274Z,99653
2019-05-10T01:42:35.122Z,99652
2019-05-10T01:45:04.854Z,99659
2019-05-10T01:47:33.731Z,99653
2019-05-10T01:50:02.521Z,99655
2019-05-10T01:52:31.356Z,99653
2019-05-10T01:55:00.950Z,99653
2019-05-10T01:57:29.787Z,99659
2019-05-10T01:59:58.618Z,99672
2019-05-10T02:02:27.481Z,99676
2019-05-10T02:04:56.316Z,99673
2019-05-10T02:07:25.902Z,99679
2019-05-10T02:09:54.739Z,99681
2019-05-10T02:12:23.568Z,99679
2019-05-10T02:14:52.486Z,99694
2019-05-10T02:17:21.293Z,99692
2019-05-10T02:19:50.138Z,99694
2019-05-10T02:22:18.989Z,99690
2019-05-10T02:24:47.811Z,99689
2019-05-10T02:27:16.793Z,99683
2019-05-10T02:29:45.681Z,99689
2019-05-10T02:32:14.491Z,99688
2019-05-10T02:34:43.323Z,99698
2019-05-10T02:37:12.162Z,99694
2019-05-10T02:42:15.156Z,99699
2019-05-10T02:44:43.987Z,99694
2019-05-10T02:47:12.943Z,99695
2019-05-10T02:49:42.548Z,99698
2019-05-10T02:52:11.430Z,99697
2019-05-10T02:54:40.224Z,99694
2019-05-10T02:57:09.059Z,99692
2019-05-10T02:59:37.903Z,99701
2019-05-10T03:02:06.755Z,99704
2019-05-10T03:04:36.341Z,99707
2019-05-10T03:07:05.182Z,99711
2019-05-10T03:09:34.061Z,99722
2019-05-10T03:12:11.315Z,99729
2019-05-10T03:14:40.744Z,99723
2019-05-10T03:17:09.613Z,99728
2019-05-10T03:19:38.441Z,99732
2019-05-10T03:22:07.296Z,99740
2019-05-10T03:24:36.889Z,99737
2019-05-10T03:27:05.746Z,99734
2019-05-10T03:29:34.598Z,99752
2019-05-10T03:32:03.477Z,99734
2019-05-10T03:34:32.299Z,99738
2019-05-10T03:37:01.873Z,99744
2019-05-10T03:39:30.709Z,99749
2019-05-10T03:41:59.545Z,99737
2019-05-10T03:44:29.143Z,99747
2019-05-10T03:46:57.993Z,99750
2019-05-10T03:49:26.833Z,99749
2019-05-10T03:51:56.419Z,99751
2019-05-10T03:54:25.256Z,99759
2019-05-10T03:57:10.937Z,99761
2019-05-10T03:59:22.929Z,99760
2019-05-10T04:01:51.773Z,99759
2019-05-10T04:04:20.652Z,99754
2019-05-10T04:06:49.491Z,99760
2019-05-10T04:09:18.324Z,99766
2019-05-10T04:11:47.213Z,99766
2019-05-10T04:14:16.034Z,99772
2019-05-10T04:16:44.876Z,99770
2019-05-10T04:19:13.717Z,99770
2019-05-10T04:21:43.340Z,99771
2019-05-10T04:24:12.921Z,99777
2019-05-10T04:26:42.539Z,99775
2019-05-10T04:29:11.341Z,99783
2019-05-10T04:31:40.187Z,99786
2019-05-10T04:34:09.038Z,99791
2019-05-10T04:36:37.870Z,99789
2019-05-10T04:39:06.728Z,99795
2019-05-10T04:41:35.590Z,99798
2019-05-10T04:44:04.433Z,99789
2019-05-10T04:46:33.831Z,99797
2019-05-10T04:49:02.663Z,99799
2019-05-10T04:51:31.549Z,99797
2019-05-10T04:54:00.411Z,99800
2019-05-10T04:56:29.258Z,99827
2019-05-10T04:58:58.110Z,99806
2019-05-10T05:01:27.702Z,99808
2019-05-10T05:03:57.131Z,99805
2019-05-10T05:06:25.991Z,99806
2019-05-10T05:08:54.958Z,99813
2019-05-10T05:11:23.757Z,99821
2019-05-10T05:13:52.571Z,99817
2019-05-10T05:16:21.447Z,99818
2019-05-10T05:18:50.267Z,99830
2019-05-10T05:21:19.096Z,99826
2019-05-10T05:23:47.938Z,99835
2019-05-10T05:26:16.779Z,99830
2019-05-10T05:28:45.623Z,99830
2019-05-10T05:31:15.205Z,99836
2019-05-10T05:33:44.063Z,99846
2019-05-10T05:36:12.901Z,99840
2019-05-10T05:38:47.265Z,99837
2019-05-10T05:41:11.354Z,99844
2019-05-10T05:43:45.549Z,99854
2019-05-10T05:46:09.066Z,99851
2019-05-10T05:48:40.309Z,99853
2019-05-10T05:51:07.528Z,99863
2019-05-10T05:53:42.147Z,99857
2019-05-10T05:56:12.735Z,99859
2019-05-10T05:58:37.946Z,99864
2019-05-10T06:01:03.578Z,99857
2019-05-10T06:03:32.414Z,99868
2019-05-10T06:06:01.229Z,99865
2019-05-10T06:08:30.807Z,99866
2019-05-10T06:11:00.209Z,99863
2019-05-10T06:13:30.454Z,99865
2019-05-10T06:16:00.155Z,99862
2019-05-10T06:18:26.999Z,99876
2019-05-10T06:20:55.831Z,99878
2019-05-10T06:23:29.135Z,99872
2019-05-10T06:25:54.266Z,99880
2019-05-10T06:28:28.669Z,99877
2019-05-10T06:30:51.935Z,99880
2019-05-10T06:33:20.765Z,99888
2019-05-10T06:35:49.610Z,99887
2019-05-10T06:38:18.459Z,99883
2019-05-10T06:40:48.170Z,99886
2019-05-10T06:43:16.900Z,99886
2019-05-10T06:45:46.657Z,99890
2019-05-10T06:48:14.613Z,99884
2019-05-10T06:50:43.444Z,99894
2019-05-10T06:53:12.290Z,99882
2019-05-10T06:55:41.128Z,99882
2019-05-10T06:58:09.964Z,99887
2019-05-10T07:00:44.837Z,99894
2019-05-10T07:03:08.417Z,99896
2019-05-10T07:07:42.627Z,99910
2019-05-10T07:10:13.015Z,99903
2019-05-10T07:12:18.642Z,99902
2019-05-10T07:14:47.497Z,99910
2019-05-10T07:17:16.345Z,99916
2019-05-10T07:19:53.622Z,99924
2019-05-10T07:22:14.025Z,99921
2019-05-10T07:24:42.873Z,99925
2019-05-10T07:27:11.786Z,99919
2019-05-10T07:29:43.685Z,99926
2019-05-10T07:32:10.148Z,99928
2019-05-10T07:34:39.006Z,99930
2019-05-10T07:37:08.559Z,99926
2019-05-10T07:39:37.399Z,99929
2019-05-10T07:42:07.027Z,99927
2019-05-10T07:44:35.077Z,99929
2019-05-10T07:47:03.926Z,99932
2019-05-10T07:49:33.508Z,99931
2019-05-10T07:52:04.281Z,99933
2019-05-10T07:54:31.182Z,99937
2019-05-10T07:59:30.386Z,99928
2019-05-10T08:01:55.745Z,99934
2019-05-10T08:04:31.459Z,99945
2019-05-10T08:06:54.223Z,99950
2019-05-10T08:09:23.020Z,99947
2019-05-10T08:11:54.152Z,99950
2019-05-10T08:14:24.772Z,99952
2019-05-10T08:16:58.293Z,99955
2019-05-10T08:19:19.104Z,99952
2019-05-10T08:21:48.880Z,99943
2019-05-10T08:24:16.884Z,99949
2019-05-10T08:26:45.667Z,99949
2019-05-10T08:29:16.929Z,99954
2019-05-10T08:31:50.465Z,99957
2019-05-10T08:34:12.927Z,99947
2019-05-10T08:36:45.853Z,99961
2019-05-10T08:39:13.594Z,99957
2019-05-10T08:41:40.223Z,99955
2019-05-10T08:44:18.609Z,99958
2019-05-10T08:46:41.275Z,99958
2019-05-10T08:49:06.767Z,99951
2019-05-10T08:51:44.168Z,99962
2019-05-10T08:54:05.237Z,99966
2019-05-10T08:56:34.084Z,99968
2019-05-10T08:59:03.861Z,99968
2019-05-10T09:01:38.768Z,99964
2019-05-10T09:04:06.554Z,99962
2019-05-10T09:06:32.577Z,99966
2019-05-10T09:09:05.954Z,99968
2019-05-10T09:11:28.591Z,99974
2019-05-10T09:13:57.910Z,99971
2019-05-10T09:16:28.997Z,99974
2019-05-10T09:18:55.864Z,99968
2019-05-10T09:21:24.703Z,99977
2019-05-10T09:24:01.590Z,99977
2019-05-10T09:26:23.121Z,99970
2019-05-10T09:28:53.456Z,99972
2019-05-10T09:31:22.725Z,99968
2019-05-10T09:33:51.498Z,99966
2019-05-10T09:36:23.201Z,99965
2019-05-10T09:38:47.308Z,99965
2019-05-10T09:41:16.142Z,99961
2019-05-10T09:43:48.657Z,99966
2019-05-10T09:46:14.160Z,99965
2019-05-10T09:48:44.946Z,99958
2019-05-10T09:51:13.808Z,99960
2019-05-10T09:53:40.378Z,99963
2019-05-10T09:56:09.173Z,99967
2019-05-10T09:58:38.750Z,99966
2019-05-10T10:01:16.179Z,99968
2019-05-10T10:03:43.195Z,99974
2019-05-10T10:06:07.584Z,99978
2019-05-10T10:08:33.367Z,99981
2019-05-10T10:11:13.297Z,99977
2019-05-10T10:13:39.591Z,99972
2019-05-10T10:16:04.079Z,99973
2019-05-10T10:18:30.369Z,99975
2019-05-10T10:20:59.211Z,99969
2019-05-10T10:23:33.048Z,99963
2019-05-10T10:25:58.081Z,99963
2019-05-10T10:28:28.384Z,99960
2019-05-10T10:31:03.039Z,99969
2019-05-10T10:33:26.279Z,99991
2019-05-10T10:35:58.159Z,99983
2019-05-10T10:38:21.797Z,99976
2019-05-10T10:40:50.631Z,99968
2019-05-10T10:43:19.474Z,99966
2019-05-10T10:45:48.317Z,99965
2019-05-10T10:48:17.857Z,99971
2019-05-10T10:50:53.883Z,99966
2019-05-10T10:53:17.811Z,99977
2019-05-10T10:55:46.098Z,99962
2019-05-10T10:58:14.019Z,99967
2019-05-10T11:00:43.595Z,99968
2019-05-10T11:03:12.434Z,99969
2019-05-10T11:05:41.271Z,99966
2019-05-10T11:08:11.184Z,99973
2019-05-10T11:10:40.470Z,99962
2019-05-10T11:13:13.397Z,99965
2019-05-10T11:15:36.791Z,99962
2019-05-10T11:18:06.261Z,99959
2019-05-10T11:20:35.121Z,99965
2019-05-10T11:23:03.940Z,99965
2019-05-10T11:25:32.776Z,99960
2019-05-10T11:28:01.938Z,99966
2019-05-10T11:30:32.558Z,99966
2019-05-10T11:33:00.485Z,99966
2019-05-10T11:35:33.733Z,99962
2019-05-10T11:37:57.731Z,99965
2019-05-10T11:40:30.763Z,99967
2019-05-10T11:42:56.177Z,99972
2019-05-10T11:45:26.124Z,99972
2019-05-10T11:47:58.957Z,99978
2019-05-10T11:50:31.471Z,99977
2019-05-10T11:52:52.296Z,99976
2019-05-10T11:55:21.869Z,99968
2019-05-10T11:59:05.019Z,99970
2019-05-10T12:00:25.640Z,99966
2019-05-10T12:03:03.471Z,99959
2019-05-10T12:05:20.401Z,99972
2019-05-10T12:07:46.072Z,99971
2019-05-10T12:10:20.732Z,99966
2019-05-10T12:12:59.773Z,99967
2019-05-10T12:15:13.849Z,99962
2019-05-10T12:17:46.384Z,99968
2019-05-10T12:20:12.573Z,99960
2019-05-10T12:22:42.032Z,99960
2019-05-10T12:25:34.838Z,99952
2019-05-10T12:27:45.148Z,99951
2019-05-10T12:30:05.721Z,99951
2019-05-10T12:32:38.773Z,99951
2019-05-10T12:35:05.545Z,99937
2019-05-10T12:37:39.492Z,99948
2019-05-10T12:40:11.836Z,99955
2019-05-10T12:42:35.622Z,99951
2019-05-10T12:45:06.160Z,99947
2019-05-10T12:47:35.009Z,99949
2019-05-10T12:50:06.544Z,99948
2019-05-10T12:52:35.409Z,99958
2019-05-10T12:55:04.243Z,99956
2019-05-10T12:57:33.817Z,99960
2019-05-10T13:00:06.803Z,99953
2019-05-10T13:02:31.711Z,99962
2019-05-10T13:05:01.173Z,99964
2019-05-10T13:07:30.016Z,99962
2019-05-10T13:10:04.209Z,99970
2019-05-10T13:12:27.741Z,99968
2019-05-10T13:14:56.589Z,99969
2019-05-10T13:17:25.447Z,99977
2019-05-10T13:19:58.535Z,99972
2019-05-10T13:22:23.128Z,99975
2019-05-10T13:24:51.957Z,99973
2019-05-10T13:27:20.801Z,99981
2019-05-10T13:29:53.345Z,99977
2019-05-10T13:32:20.717Z,99975
2019-05-10T13:34:47.314Z,99976
2019-05-10T13:37:23.083Z,99979
2019-05-10T13:39:47.117Z,99971
2019-05-10T13:42:15.969Z,99968
2019-05-10T13:44:44.836Z,99968
2019-05-10T13:47:14.234Z,99975
2019-05-10T13:49:43.067Z,99974
2019-05-10T13:52:11.910Z,99968
2019-05-10T13:54:40.748Z,99972
2019-05-10T13:57:09.621Z,99967
2019-05-10T13:59:38.490Z,99968
2019-05-10T14:02:07.321Z,99959
2019-05-10T14:04:38.717Z,99968
2019-05-10T14:07:05.062Z,99963
2019-05-10T14:09:33.900Z,99968
2019-05-10T14:12:02.783Z,99975
2019-05-10T14:14:31.643Z,99976
2019-05-10T14:17:01.186Z,99975
2019-05-10T14:19:30.042Z,99968
2019-05-10T14:21:58.868Z,99968
2019-05-10T14:24:27.721Z,99960
2019-05-10T14:26:57.585Z,99966
2019-05-10T14:29:32.854Z,99964
2019-05-10T14:31:54.876Z,99966
2019-05-10T14:34:23.699Z,99963
2019-05-10T14:36:52.564Z,99958
2019-05-10T14:39:21.416Z,99964
2019-05-10T14:41:52.440Z,99963
2019-05-10T14:44:19.929Z,99962
2019-05-10T14:46:48.769Z,99970
2019-05-10T14:49:17.821Z,99969
2019-05-10T14:51:58.391Z,99971
2019-05-10T14:54:15.491Z,99977
2019-05-10T14:56:44.354Z,99970
2019-05-10T14:59:13.191Z,99977
2019-05-10T15:01:45.165Z,99983
2019-05-10T15:04:11.617Z,99992
2019-05-10T15:06:40.473Z,99976
2019-05-10T15:09:20.395Z,99979
2019-05-10T15:11:38.931Z,99970
2019-05-10T15:14:07.832Z,99979
2019-05-10T15:16:36.635Z,99983
2019-05-10T15:19:05.479Z,99987
2019-05-10T15:21:34.796Z,99982
2019-05-10T15:24:03.923Z,99974
2019-05-10T15:26:37.313Z,99969
2019-05-10T15:29:02.831Z,99971
2019-05-10T15:31:32.261Z,99960
2019-05-10T15:34:04.928Z,99964
2019-05-10T15:36:31.757Z,99966
2019-05-10T15:38:58.818Z,99968
2019-05-10T15:41:28.854Z,99972
2019-05-10T15:43:57.721Z,99970
2019-05-10T15:46:35.439Z,99971
2019-05-10T15:48:55.410Z,99980
2019-05-10T15:51:35.753Z,99980
2019-05-10T15:54:03.909Z,99984
2019-05-10T15:57:39.145Z,99987
2019-05-10T16:00:07.958Z,99988
2019-05-10T16:02:37.601Z,99981
2019-05-10T16:05:23.406Z,99990
2019-05-10T16:07:35.850Z,99984
2019-05-10T16:10:04.753Z,99981
2019-05-10T16:12:37.871Z,99975
2019-05-10T16:15:02.412Z,99981
2019-05-10T16:17:31.284Z,99983
2019-05-10T16:20:01.270Z,99986
2019-05-10T16:22:30.237Z,99987
2019-05-10T16:25:00.699Z,99999
2019-05-10T16:27:27.010Z,99994
2019-05-10T16:29:55.850Z,99986
2019-05-10T16:32:29.230Z,99987
2019-05-10T16:34:53.524Z,99982
2019-05-10T16:37:22.386Z,99984
2019-05-10T16:39:51.248Z,99995
2019-05-10T16:42:20.093Z,99986
2019-05-10T16:44:48.988Z,99981
2019-05-10T16:47:17.815Z,99983
2019-05-10T16:49:47.801Z,99983
2019-05-10T16:52:19.636Z,99985
2019-05-10T16:54:44.356Z,99981
2019-05-10T16:57:13.959Z,99971
2019-05-10T16:59:42.809Z,99969
2019-05-10T17:02:12.032Z,99986
2019-05-10T17:04:41.270Z,99987
2019-05-10T17:07:13.081Z,99985
2019-05-10T17:09:39.025Z,99987
2019-05-10T17:12:08.610Z,99982
2019-05-10T17:14:37.455Z,99976
2019-05-10T17:17:06.309Z,99977
2019-05-10T17:19:36.142Z,99969
2019-05-10T17:22:04.781Z,99972
2019-05-10T17:24:33.625Z,99970
2019-05-10T17:27:02.470Z,99970
2019-05-10T17:29:31.304Z,99973
2019-05-10T17:32:00.138Z,99974
2019-05-10T17:34:29.692Z,99979
2019-05-10T17:36:59.640Z,99967
2019-05-10T17:39:32.366Z,99961
2019-05-10T17:41:57.619Z,99964
2019-05-10T17:44:24.903Z,99953
2019-05-10T17:46:55.581Z,99950
2019-05-10T17:49:22.909Z,99946
2019-05-10T17:51:51.794Z,99951
2019-05-10T17:54:20.605Z,99960
2019-05-10T17:56:49.455Z,99953
2019-05-10T17:59:18.350Z,99947
2019-05-10T18:01:47.161Z,99952
2019-05-10T18:04:16.773Z,99952
2019-05-10T18:06:45.618Z,99948
2019-05-10T18:09:14.466Z,99949
2019-05-10T18:11:44.959Z,99949
2019-05-10T18:14:17.849Z,99958
2019-05-10T18:16:48.322Z,99965
2019-05-10T18:19:11.236Z,99959
2019-05-10T18:21:40.046Z,99959
2019-05-10T18:24:08.890Z,99973
2019-05-10T18:26:39.699Z,99979
2019-05-10T18:29:06.596Z,99968
2019-05-10T18:31:35.444Z,99973
2019-05-10T18:34:04.282Z,99977
2019-05-10T18:36:50.550Z,99978
2019-05-10T18:39:01.974Z,99976
2019-05-10T18:41:30.801Z,99979
2019-05-10T18:43:59.648Z,99979
2019-05-10T18:46:28.523Z,99978
2019-05-10T18:48:57.377Z,99989
2019-05-10T18:51:26.460Z,99980
2019-05-10T18:53:55.108Z,99987
2019-05-10T18:56:25.385Z,99984
2019-05-10T18:58:52.867Z,99986
2019-05-10T19:01:22.447Z,99997
2019-05-10T19:03:51.294Z,99982
2019-05-10T19:06:20.176Z,99988
2019-05-10T19:08:49.036Z,99983
2019-05-10T19:11:18.703Z,100000
2019-05-10T19:13:53.685Z,99995
2019-05-10T19:16:16.340Z,99996
2019-05-10T19:18:45.956Z,99986
2019-05-10T19:21:15.557Z,99993
2019-05-10T19:23:44.411Z,99995
2019-05-10T19:26:13.258Z,99989
2019-05-10T19:28:42.096Z,99998
2019-05-10T19:31:10.950Z,99998
2019-05-10T19:33:39.804Z,100005
2019-05-10T19:36:13.170Z,99996
2019-05-10T19:38:37.525Z,99998
2019-05-10T19:41:06.395Z,100000
2019-05-10T19:43:35.269Z,100005
2019-05-10T19:46:04.110Z,100006
2019-05-10T19:48:35.392Z,100012
2019-05-10T19:51:02.936Z,100012
2019-05-10T19:53:30.747Z,100019
2019-05-10T19:55:59.682Z,100013
2019-05-10T19:58:32.411Z,100018
2019-05-10T20:00:57.405Z,100023
2019-05-10T20:03:26.238Z,100030
2019-05-10T20:05:55.158Z,100027
2019-05-10T20:08:24.015Z,100014
2019-05-10T20:10:52.875Z,100022
2019-05-10T20:13:21.760Z,100019
2019-05-10T20:15:50.567Z,100007
2019-05-10T20:18:19.408Z,100001
2019-05-10T20:20:48.243Z,99999
2019-05-10T20:23:17.113Z,100003
2019-05-10T20:25:45.959Z,100000
2019-05-10T20:28:14.853Z,99999
2019-05-10T20:30:43.696Z,99992
2019-05-10T20:33:12.543Z,99983
2019-05-10T20:35:42.131Z,99994
2019-05-10T20:38:10.967Z,99985
2019-05-10T20:40:39.816Z,99987
2019-05-10T20:43:08.671Z,99993
2019-05-10T20:45:37.520Z,99992
2019-05-10T20:48:06.419Z,99989
2019-05-10T20:50:35.236Z,99986
2019-05-10T20:53:04.824Z,100000
2019-05-10T20:55:33.678Z,99993
2019-05-10T20:58:02.587Z,99991
2019-05-10T21:00:31.382Z,99996
2019-05-10T21:03:00.230Z,100008
2019-05-10T21:05:29.089Z,99991
2019-05-10T21:07:57.979Z,99989
2019-05-10T21:10:26.791Z,99992
2019-05-10T21:12:55.619Z,99979
2019-05-10T21:15:24.468Z,99981
2019-05-10T21:17:53.297Z,99972
2019-05-10T21:20:22.152Z,99968
2019-05-10T21:22:50.995Z,99976
2019-05-10T21:25:19.826Z,99972
2019-05-10T21:27:48.715Z,99969
2019-05-10T21:30:17.537Z,99971
2019-05-10T21:32:46.366Z,99974
2019-05-10T21:35:19.154Z,99969
2019-05-10T21:37:48.059Z,99962
2019-05-10T21:40:16.864Z,99960
2019-05-10T21:42:46.444Z,99958
2019-05-10T21:45:16.030Z,99952
2019-05-10T21:47:51.519Z,99950
2019-05-10T21:50:13.725Z,99954
2019-05-10T21:52:42.574Z,99951
2019-05-10T21:55:11.421Z,99953
2019-05-10T21:57:40.321Z,99942
2019-05-10T22:00:09.113Z,99955
2019-05-10T22:02:37.948Z,99947
2019-05-10T22:05:06.817Z,99944
2019-05-10T22:07:35.668Z,99947
2019-05-10T22:10:04.531Z,99952
2019-05-10T22:12:33.333Z,99942
2019-05-10T22:15:02.914Z,99939
2019-05-10T22:17:31.738Z,99928
2019-05-10T22:20:00.598Z,99924
2019-05-10T22:22:29.436Z,99920
2019-05-10T22:24:58.277Z,99907
2019-05-10T22:27:27.111Z,99904
2019-05-10T22:29:55.939Z,99905
2019-05-10T22:32:24.780Z,99903
2019-05-10T22:34:53.627Z,99904
2019-05-10T22:37:22.455Z,99908
2019-05-10T22:39:51.297Z,99911
2019-05-10T22:42:20.143Z,99902
2019-05-10T22:44:48.982Z,99903
2019-05-10T22:47:17.849Z,99896
2019-05-10T22:49:46.690Z,99883
2019-05-10T22:52:15.547Z,99889
2019-05-10T22:54:44.381Z,99888
2019-05-10T22:57:13.222Z,99874
2019-05-10T22:59:42.656Z,99884
2019-05-10T23:02:12.238Z,99881
2019-05-10T23:04:41.074Z,99893
2019-05-10T23:07:09.921Z,99905
2019-05-10T23:09:38.751Z,99919
2019-05-10T23:12:07.603Z,99917
2019-05-10T23:14:37.197Z,99916
2019-05-10T23:17:06.039Z,99905
2019-05-10T23:19:34.903Z,99898
2019-05-10T23:22:03.755Z,99901
2019-05-10T23:24:36.425Z,99904
2019-05-10T23:27:05.252Z,99894
2019-05-10T23:29:34.102Z,99885
2019-05-10T23:32:02.942Z,99881
2019-05-10T23:34:31.781Z,99871
2019-05-10T23:37:00.619Z,99868
2019-05-10T23:39:40.166Z,99855
2019-05-10T23:41:59.081Z,99843
2019-05-10T23:44:27.921Z,99839
2019-05-10T23:46:56.761Z,99826
2019-05-10T23:49:25.601Z,99821
2019-05-10T23:51:54.432Z,99823
2019-05-10T23:54:23.271Z,99826
2019-05-10T23:56:52.129Z,99837
2019-05-10T23:59:20.971Z,99820
